Time;durP1;ratioP1;P1;durP2;ratioP2;P2;SDS_P1;SDS_P2;PMS_P1;PMS_P2;Temp;Humidity;BMP_temperature;BMP_pressure;BME280_temperature;BME280_humidity;BME280_pressure;Samples;Min_cycle;Max_cycle;Signal;HPM_P1;HPM_P2
2023/12/11 00:00:26;;;;;;;37.72;23.67;;;5.50;99.90;;;;;;5010151;28;20050;-76
2023/12/11 00:02:54;;;;;;;39.85;23.85;;;5.60;99.90;;;;;;5010238;28;20046;-72
2023/12/11 00:05:21;;;;;;;39.17;24.77;;;5.70;99.90;;;;;;5009804;28;20033;-74
2023/12/11 00:07:49;;;;;;;43.13;25.40;;;5.70;99.90;;;;;;5007651;28;20064;-74
2023/12/11 00:10:16;;;;;;;39.63;24.95;;;5.70;99.90;;;;;;5008132;28;20038;-77
2023/12/11 00:12:44;;;;;;;37.00;24.52;;;5.60;99.90;;;;;;5009245;28;20037;-77
2023/12/11 00:15:12;;;;;;;34.72;22.40;;;5.60;99.90;;;;;;4991729;28;20029;-79
2023/12/11 00:17:40;;;;;;;41.40;23.55;;;5.60;99.90;;;;;;5009923;28;20034;-87
2023/12/11 00:20:08;;;;;;;43.08;24.17;;;5.60;99.90;;;;;;5010050;28;20490;-77
2023/12/11 00:22:35;;;;;;;41.78;25.38;;;5.70;99.90;;;;;;5009582;28;20394;-75
2023/12/11 00:25:03;;;;;;;40.83;24.95;;;5.70;99.90;;;;;;5009615;28;20064;-77
2023/12/11 00:27:31;;;;;;;42.72;24.15;;;5.70;99.90;;;;;;5002295;28;20033;-75
2023/12/11 00:29:59;;;;;;;42.05;25.27;;;5.80;99.90;;;;;;5013392;28;20038;-75
2023/12/11 00:32:27;;;;;;;50.33;30.45;;;5.80;99.90;;;;;;5013906;28;20659;-72
2023/12/11 00:34:54;;;;;;;51.97;32.45;;;5.90;99.90;;;;;;5014115;28;20466;-76
2023/12/11 00:37:22;;;;;;;53.63;31.27;;;6.00;99.90;;;;;;5013219;28;20041;-75
2023/12/11 00:39:49;;;;;;;43.20;27.73;;;6.00;99.90;;;;;;5013946;28;20423;-76
2023/12/11 00:42:16;;;;;;;45.53;28.17;;;5.90;99.90;;;;;;5012407;28;20469;-75
2023/12/11 00:44:44;;;;;;;53.55;30.67;;;5.90;99.90;;;;;;5013641;28;20080;-76
2023/12/11 00:47:11;;;;;;;52.70;29.35;;;5.80;99.90;;;;;;5013419;28;20133;-78
2023/12/11 00:49:38;;;;;;;50.45;30.27;;;5.80;99.90;;;;;;5013751;28;20056;-75
2023/12/11 00:52:06;;;;;;;49.50;30.15;;;5.70;99.90;;;;;;5014481;28;20045;-78
2023/12/11 00:54:34;;;;;;;53.30;31.65;;;5.80;99.90;;;;;;5013662;28;20034;-74
2023/12/11 00:57:01;;;;;;;51.58;30.80;;;5.70;99.90;;;;;;5013531;28;20358;-76
2023/12/11 00:59:28;;;;;;;55.83;34.55;;;5.50;99.90;;;;;;5012093;28;20038;-73
2023/12/11 01:01:56;;;;;;;59.83;36.35;;;5.50;99.90;;;;;;5013409;28;20038;-74
2023/12/11 01:04:23;;;;;;;63.45;38.75;;;5.50;99.90;;;;;;5013165;28;20038;-76
2023/12/11 01:06:50;;;;;;;59.47;37.47;;;5.40;99.90;;;;;;5012532;28;20387;-75
2023/12/11 01:09:18;;;;;;;65.88;39.92;;;5.30;99.90;;;;;;5013049;28;20034;-74
2023/12/11 01:11:45;;;;;;;66.75;40.42;;;5.40;99.90;;;;;;5012912;28;20120;-77
2023/12/11 01:14:13;;;;;;;75.00;42.33;;;5.30;99.90;;;;;;5013108;28;20034;-76
2023/12/11 01:16:40;;;;;;;71.13;42.80;;;5.30;99.90;;;;;;5013346;28;20057;-75
2023/12/11 01:19:08;;;;;;;74.53;45.30;;;5.10;99.90;;;;;;5013028;28;20045;-75
2023/12/11 01:21:35;;;;;;;79.68;45.38;;;5.10;99.90;;;;;;5012837;28;20053;-76
2023/12/11 01:24:03;;;;;;;79.50;44.95;;;5.00;99.90;;;;;;5008972;28;20041;-75
2023/12/11 01:26:30;;;;;;;74.38;42.78;;;5.00;99.90;;;;;;5012650;28;20080;-75
2023/12/11 01:28:58;;;;;;;74.38;45.70;;;5.00;99.90;;;;;;5012130;28;20120;-75
2023/12/11 01:31:25;;;;;;;83.15;44.33;;;5.00;99.90;;;;;;5011988;28;20099;-75
2023/12/11 01:33:52;;;;;;;73.22;43.25;;;5.00;99.90;;;;;;5012605;28;20117;-75
2023/12/11 01:36:20;;;;;;;74.00;44.88;;;5.10;99.90;;;;;;5012993;28;20033;-78
2023/12/11 01:38:49;;;;;;;73.90;43.83;;;5.10;99.90;;;;;;5012077;28;20044;-75
2023/12/11 01:41:17;;;;;;;71.95;41.67;;;5.20;99.90;;;;;;5012823;28;20486;-77
2023/12/11 01:43:52;;;;;;;69.85;41.35;;;5.20;99.90;;;;;;5012156;28;20042;-74
2023/12/11 01:46:21;;;;;;;70.70;40.70;;;5.10;99.90;;;;;;5013127;28;20050;-76
2023/12/11 01:48:49;;;;;;;65.35;37.75;;;5.10;99.90;;;;;;4987999;28;20114;-78
2023/12/11 01:51:18;;;;;;;61.97;38.43;;;5.10;99.90;;;;;;4995141;28;20073;-80
2023/12/11 01:53:51;;;;;;;62.60;37.70;;;5.10;99.90;;;;;;5012300;28;20061;-75
2023/12/11 01:56:20;;;;;;;67.03;40.17;;;5.00;99.90;;;;;;5012533;28;20107;-74
2023/12/11 01:58:48;;;;;;;72.82;42.00;;;4.90;99.90;;;;;;4994467;28;20604;-74
2023/12/11 02:01:19;;;;;;;67.97;39.67;;;4.80;99.90;;;;;;4995203;28;20054;-75
2023/12/11 02:03:46;;;;;;;65.72;41.00;;;4.60;99.90;;;;;;5012028;28;20096;-75
2023/12/11 02:06:14;;;;;;;71.05;40.50;;;4.60;99.90;;;;;;5012464;28;20525;-77
2023/12/11 02:08:41;;;;;;;73.05;42.92;;;4.50;99.90;;;;;;5012043;28;20106;-78
2023/12/11 02:11:09;;;;;;;67.80;40.28;;;4.70;99.90;;;;;;5012010;28;20060;-76
2023/12/11 02:13:38;;;;;;;71.50;42.78;;;4.70;99.90;;;;;;5011744;28;20040;-75
2023/12/11 02:16:06;;;;;;;67.47;39.78;;;4.60;99.90;;;;;;5008759;28;20030;-73
2023/12/11 02:18:33;;;;;;;63.28;38.63;;;4.50;99.90;;;;;;4993232;28;20390;-76
2023/12/11 02:21:01;;;;;;;71.38;39.58;;;4.50;99.90;;;;;;5010854;28;20061;-75
2023/12/11 02:23:47;;;;;;;65.45;38.65;;;4.50;99.90;;;;;;4993079;28;20046;-75
2023/12/11 02:26:17;;;;;;;63.00;38.67;;;4.50;99.90;;;;;;5012163;28;20466;-76
2023/12/11 02:28:45;;;;;;;64.63;39.80;;;4.50;99.90;;;;;;5012381;28;20058;-75
2023/12/11 02:31:12;;;;;;;63.63;37.85;;;4.50;99.90;;;;;;5011920;28;20116;-75
2023/12/11 02:33:40;;;;;;;55.35;35.03;;;4.50;99.90;;;;;;5011632;28;20026;-77
2023/12/11 02:36:08;;;;;;;67.28;37.55;;;4.50;99.90;;;;;;5012138;28;20030;-74
2023/12/11 02:38:35;;;;;;;62.70;36.47;;;4.50;99.90;;;;;;5011382;28;20057;-76
2023/12/11 02:41:03;;;;;;;61.17;35.45;;;4.40;99.90;;;;;;5010914;28;20037;-77
2023/12/11 02:43:30;;;;;;;56.92;33.83;;;4.40;99.90;;;;;;5011052;28;20438;-77
2023/12/11 02:45:58;;;;;;;58.15;35.25;;;4.30;99.90;;;;;;5021329;28;20140;-77
2023/12/11 02:48:25;;;;;;;56.83;35.33;;;4.40;99.90;;;;;;5010861;28;20056;-75
2023/12/11 02:50:53;;;;;;;60.35;36.55;;;4.50;99.90;;;;;;5011454;28;20444;-74
2023/12/11 02:53:20;;;;;;;53.80;32.95;;;4.40;99.90;;;;;;5010587;28;20049;-76
2023/12/11 02:55:47;;;;;;;47.53;32.05;;;4.40;99.90;;;;;;5011898;28;20041;-74
2023/12/11 02:58:15;;;;;;;48.63;28.65;;;4.40;99.90;;;;;;5011073;28;20165;-77
2023/12/11 03:00:42;;;;;;;38.25;25.38;;;4.30;99.90;;;;;;5011327;28;20036;-77
2023/12/11 03:03:10;;;;;;;53.95;31.05;;;4.30;99.90;;;;;;5011270;28;20050;-76
2023/12/11 03:05:37;;;;;;;53.50;30.02;;;4.30;99.90;;;;;;5009931;28;20114;-75
2023/12/11 03:08:05;;;;;;;42.95;28.55;;;4.20;99.90;;;;;;5011179;28;20687;-77
2023/12/11 03:10:33;;;;;;;42.63;26.23;;;4.30;99.90;;;;;;5010944;28;20421;-76
2023/12/11 03:13:00;;;;;;;46.92;25.83;;;4.30;99.90;;;;;;5011317;28;20053;-76
2023/12/11 03:15:30;;;;;;;37.05;23.45;;;4.30;99.90;;;;;;5010660;28;20061;-79
2023/12/11 03:17:59;;;;;;;42.40;24.63;;;4.10;99.90;;;;;;5010196;28;20421;-80
2023/12/11 03:20:27;;;;;;;36.50;23.45;;;4.00;99.90;;;;;;5011056;28;20045;-76
2023/12/11 03:22:55;;;;;;;34.88;23.13;;;3.90;99.90;;;;;;5008671;28;20033;-78
2023/12/11 03:25:22;;;;;;;33.08;21.95;;;3.90;99.90;;;;;;5011535;28;20038;-77
2023/12/11 03:27:49;;;;;;;35.72;22.42;;;3.90;99.90;;;;;;5011059;28;20061;-75
2023/12/11 03:30:17;;;;;;;34.70;22.80;;;3.90;99.90;;;;;;5011125;28;20068;-75
2023/12/11 03:32:44;;;;;;;36.58;24.13;;;4.00;99.90;;;;;;5010999;28;20041;-76
2023/12/11 03:35:12;;;;;;;34.95;23.20;;;4.10;99.90;;;;;;5009883;28;20036;-75
2023/12/11 03:37:39;;;;;;;32.25;20.75;;;4.20;99.90;;;;;;5010722;28;20440;-79
2023/12/11 03:40:07;;;;;;;31.40;21.02;;;4.30;99.90;;;;;;5009199;28;20116;-74
2023/12/11 03:42:34;;;;;;;39.95;24.80;;;4.30;99.90;;;;;;5009787;28;20044;-74
2023/12/11 03:45:02;;;;;;;39.00;24.60;;;4.20;99.90;;;;;;5010308;28;20149;-75
2023/12/11 03:47:29;;;;;;;39.90;24.75;;;4.00;99.90;;;;;;5010325;28;20048;-75
2023/12/11 03:49:57;;;;;;;40.45;25.40;;;3.90;99.90;;;;;;5010004;28;20025;-76
2023/12/11 03:52:25;;;;;;;40.42;25.98;;;4.00;99.90;;;;;;5010717;28;20374;-75
2023/12/11 03:54:53;;;;;;;37.50;25.13;;;3.90;99.90;;;;;;5010081;28;20104;-77
2023/12/11 03:57:20;;;;;;;36.70;24.25;;;3.70;99.90;;;;;;5010274;28;20061;-78
2023/12/11 03:59:47;;;;;;;48.53;29.00;;;3.70;99.90;;;;;;5010116;28;20099;-77
2023/12/11 04:02:14;;;;;;;52.15;31.02;;;3.60;99.90;;;;;;4992260;28;20529;-76
2023/12/11 04:04:42;;;;;;;49.33;29.27;;;3.60;99.90;;;;;;5008282;28;20057;-75
2023/12/11 04:07:09;;;;;;;46.22;28.77;;;3.60;99.90;;;;;;5009663;28;20042;-76
2023/12/11 04:09:41;;;;;;;47.33;29.85;;;3.50;99.90;;;;;;5009598;28;20061;-76
2023/12/11 04:12:08;;;;;;;54.10;32.05;;;3.40;99.90;;;;;;5010120;28;20041;-78
2023/12/11 04:14:36;;;;;;;58.13;34.08;;;3.40;99.90;;;;;;4976981;28;20036;-77
2023/12/11 04:17:04;;;;;;;56.83;33.13;;;3.40;99.90;;;;;;4988761;28;20117;-77
2023/12/11 04:19:31;;;;;;;50.80;31.70;;;3.40;99.90;;;;;;5009584;28;20042;-75
2023/12/11 04:21:59;;;;;;;46.72;30.00;;;3.40;99.90;;;;;;5007997;28;20123;-75
2023/12/11 04:24:26;;;;;;;52.33;29.40;;;3.40;99.90;;;;;;5009671;28;20104;-77
2023/12/11 04:26:53;;;;;;;47.85;30.40;;;3.40;99.90;;;;;;5010322;28;20373;-77
2023/12/11 04:29:21;;;;;;;56.42;32.33;;;3.30;99.90;;;;;;5009902;28;20388;-76
2023/12/11 04:31:48;;;;;;;51.88;31.75;;;3.00;99.90;;;;;;4993296;28;20073;-77
2023/12/11 04:34:15;;;;;;;56.08;33.00;;;3.00;99.90;;;;;;5010132;28;20117;-79
2023/12/11 04:36:46;;;;;;;56.80;31.77;;;2.90;99.90;;;;;;4993263;28;20129;-80
2023/12/11 04:39:13;;;;;;;;;;;3.00;99.90;;;;;;5010179;28;20413;-78
2023/12/11 04:41:40;;;;;;;44.97;27.45;;;2.80;99.90;;;;;;5010081;28;19921;-77
2023/12/11 04:44:08;;;;;;;49.30;28.45;;;2.90;99.90;;;;;;5010060;28;20042;-74
2023/12/11 04:46:35;;;;;;;48.92;29.50;;;2.90;99.90;;;;;;4989898;28;20062;-75
2023/12/11 04:49:02;;;;;;;47.97;27.50;;;2.90;99.90;;;;;;5006056;28;20058;-80
2023/12/11 04:51:30;;;;;;;50.80;28.25;;;2.90;99.90;;;;;;4991198;28;20038;-76
2023/12/11 04:53:58;;;;;;;47.45;28.20;;;2.90;99.90;;;;;;4991823;28;20042;-83
2023/12/11 04:56:26;;;;;;;48.47;28.55;;;2.90;99.90;;;;;;4990501;28;20410;-77
2023/12/11 04:58:53;;;;;;;46.10;28.77;;;2.90;99.90;;;;;;4990930;28;20426;-84
2023/12/11 05:01:21;;;;;;;45.50;28.20;;;3.00;99.90;;;;;;4990017;28;20085;-76
2023/12/11 05:03:49;;;;;;;48.80;29.02;;;3.00;99.90;;;;;;4991362;28;20057;-81
2023/12/11 05:06:16;;;;;;;46.67;28.75;;;3.00;99.90;;;;;;4973615;28;20386;-77
2023/12/11 05:08:43;;;;;;;48.63;26.92;;;3.00;99.90;;;;;;4991068;28;20062;-80
2023/12/11 05:11:11;;;;;;;46.45;28.08;;;3.00;99.90;;;;;;4989303;28;20030;-84
2023/12/11 05:13:39;;;;;;;40.70;26.17;;;3.20;99.90;;;;;;4990592;28;20061;-81
2023/12/11 05:16:06;;;;;;;46.10;28.10;;;3.30;99.90;;;;;;4991500;28;20058;-79
2023/12/11 05:18:34;;;;;;;45.55;27.50;;;3.20;99.90;;;;;;4991042;28;20030;-79
2023/12/11 05:21:09;;;;;;;47.63;29.85;;;3.10;99.90;;;;;;4993793;28;20038;-77
2023/12/11 05:23:36;;;;;;;43.22;28.17;;;3.00;99.90;;;;;;4991336;28;20682;-76
2023/12/11 05:26:04;;;;;;;53.78;29.00;;;3.00;99.90;;;;;;4994152;28;20374;-86
2023/12/11 05:28:31;;;;;;;47.92;28.42;;;3.00;99.90;;;;;;4993841;28;20039;-81
2023/12/11 05:30:59;;;;;;;50.13;28.35;;;3.00;99.90;;;;;;4989688;28;20483;-83
2023/12/11 05:33:26;;;;;;;46.50;28.45;;;3.00;99.90;;;;;;4985967;28;20065;-81
2023/12/11 05:35:53;;;;;;;49.13;29.73;;;2.90;99.90;;;;;;4991663;28;20390;-81
2023/12/11 05:38:21;;;;;;;51.38;29.65;;;2.80;99.90;;;;;;5007332;28;20032;-81
2023/12/11 05:40:48;;;;;;;49.67;28.10;;;2.60;99.90;;;;;;4989255;28;20414;-86
2023/12/11 05:43:15;;;;;;;47.70;29.88;;;2.80;99.90;;;;;;4993551;28;20030;-80
2023/12/11 05:45:43;;;;;;;55.30;32.15;;;2.90;99.90;;;;;;5005957;28;20046;-80
2023/12/11 05:48:11;;;;;;;51.90;31.38;;;2.90;99.90;;;;;;4991020;28;20400;-77
2023/12/11 05:50:39;;;;;;;52.95;30.25;;;2.90;99.90;;;;;;5012355;28;20128;-78
2023/12/11 05:53:07;;;;;;;54.30;31.08;;;2.90;99.90;;;;;;5010692;28;20084;-78
2023/12/11 05:55:35;;;;;;;60.90;35.45;;;2.80;99.90;;;;;;5010849;28;20040;-78
2023/12/11 05:58:02;;;;;;;58.03;36.15;;;2.70;99.90;;;;;;5010146;28;20038;-78
2023/12/11 06:00:29;;;;;;;60.08;35.65;;;2.60;99.90;;;;;;5011972;28;20483;-78
2023/12/11 06:02:57;;;;;;;55.13;32.10;;;2.40;99.90;;;;;;5012081;28;20069;-81
2023/12/11 06:05:24;;;;;;;51.30;30.35;;;2.40;99.90;;;;;;5009540;28;20508;-76
2023/12/11 06:07:51;;;;;;;77.68;45.65;;;2.30;99.90;;;;;;5009494;28;20053;-76
2023/12/11 06:10:19;;;;;;;102.05;55.90;;;2.60;99.90;;;;;;5010236;28;20075;-77
2023/12/11 06:12:46;;;;;;;48.72;30.83;;;2.80;99.90;;;;;;4985930;28;20116;-76
2023/12/11 06:15:14;;;;;;;49.25;27.67;;;2.70;99.90;;;;;;5009032;28;20129;-77
2023/12/11 06:17:41;;;;;;;42.50;25.92;;;2.60;99.90;;;;;;5008168;28;20122;-77
2023/12/11 06:20:09;;;;;;;45.08;27.20;;;2.60;99.90;;;;;;5012034;28;20026;-77
2023/12/11 06:22:37;;;;;;;42.40;25.67;;;2.50;99.90;;;;;;4993841;28;20436;-78
2023/12/11 06:25:04;;;;;;;195.55;93.10;;;2.50;99.90;;;;;;4997009;28;20473;-79
2023/12/11 06:27:32;;;;;;;64.13;39.10;;;2.70;99.90;;;;;;5010872;28;20463;-74
2023/12/11 06:29:59;;;;;;;45.58;28.85;;;2.90;99.90;;;;;;5012130;28;20091;-78
2023/12/11 06:32:27;;;;;;;48.15;29.63;;;2.80;99.90;;;;;;4991992;28;20112;-79
2023/12/11 06:34:54;;;;;;;48.17;30.02;;;2.90;99.90;;;;;;5010161;28;20030;-79
2023/12/11 06:37:22;;;;;;;46.58;28.42;;;2.80;99.90;;;;;;5009162;28;20045;-79
2023/12/11 06:39:50;;;;;;;41.50;26.80;;;2.90;99.90;;;;;;5009994;28;20026;-78
2023/12/11 06:42:17;;;;;;;41.28;27.77;;;2.90;99.90;;;;;;4992787;28;20056;-81
2023/12/11 06:44:45;;;;;;;44.40;28.17;;;3.00;99.90;;;;;;4990772;28;20048;-79
2023/12/11 06:47:13;;;;;;;47.15;28.95;;;3.00;99.90;;;;;;4993908;28;20410;-79
2023/12/11 06:49:42;;;;;;;50.85;30.00;;;3.10;99.90;;;;;;5011461;28;20034;-79
2023/12/11 06:52:10;;;;;;;45.88;28.00;;;3.00;99.90;;;;;;5010554;28;20413;-80
2023/12/11 06:54:37;;;;;;;42.80;28.27;;;3.10;99.90;;;;;;5011383;28;20033;-77
2023/12/11 06:57:06;;;;;;;158.15;78.22;;;3.10;99.90;;;;;;5011622;28;20045;-80
2023/12/11 06:59:33;;;;;;;85.28;47.17;;;3.40;99.90;;;;;;5010294;28;20126;-78
2023/12/11 07:02:04;;;;;;;55.22;33.50;;;3.90;99.90;;;;;;5012089;28;20026;-78
2023/12/11 07:04:35;;;;;;;49.92;30.25;;;3.90;99.90;;;;;;5010995;28;20077;-79
2023/12/11 07:07:03;;;;;;;45.60;29.25;;;4.00;99.90;;;;;;5011187;28;20413;-78
2023/12/11 07:09:31;;;;;;;39.55;28.48;;;3.90;99.90;;;;;;5010608;28;20413;-78
2023/12/11 07:11:59;;;;;;;44.05;28.63;;;3.90;99.90;;;;;;5010820;28;20030;-77
2023/12/11 07:14:26;;;;;;;50.25;29.20;;;4.00;99.90;;;;;;5010473;28;20125;-77
2023/12/11 07:16:53;;;;;;;43.55;28.30;;;4.00;99.90;;;;;;5010158;28;20041;-78
2023/12/11 07:19:21;;;;;;;57.15;30.27;;;4.00;99.90;;;;;;5010964;28;20125;-82
2023/12/11 07:21:49;;;;;;;50.03;31.35;;;4.00;99.90;;;;;;5011069;28;20037;-78
2023/12/11 07:24:16;;;;;;;52.38;31.05;;;4.00;99.90;;;;;;5010397;28;20045;-77
2023/12/11 07:26:43;;;;;;;52.28;33.38;;;4.00;99.90;;;;;;5010485;28;20469;-77
2023/12/11 07:29:10;;;;;;;55.88;34.67;;;4.00;99.90;;;;;;5008432;28;20049;-78
2023/12/11 07:31:39;;;;;;;58.50;33.85;;;4.10;99.90;;;;;;5009375;28;20104;-78
2023/12/11 07:34:07;;;;;;;49.33;32.55;;;4.30;99.90;;;;;;5008733;28;20053;-78
2023/12/11 07:36:34;;;;;;;49.63;32.00;;;4.30;99.90;;;;;;5009200;28;20461;-79
2023/12/11 07:39:02;;;;;;;56.97;34.53;;;4.30;99.90;;;;;;4991487;28;20053;-77
2023/12/11 07:41:29;;;;;;;56.63;35.65;;;4.40;99.90;;;;;;5009778;28;20037;-77
2023/12/11 07:43:58;;;;;;;51.42;33.03;;;4.50;99.90;;;;;;4992467;28;20069;-76
2023/12/11 07:46:25;;;;;;;54.65;36.05;;;4.60;99.90;;;;;;5008362;28;20397;-79
2023/12/11 07:48:53;;;;;;;58.20;33.30;;;4.70;99.90;;;;;;5008439;28;20449;-78
2023/12/11 07:51:25;;;;;;;56.88;31.67;;;4.90;99.90;;;;;;5008436;28;20450;-79
2023/12/11 07:53:55;;;;;;;46.83;29.88;;;5.00;99.90;;;;;;5009040;28;20034;-78
2023/12/11 07:56:24;;;;;;;50.00;29.83;;;4.90;99.90;;;;;;5008402;28;20136;-78
2023/12/11 07:58:52;;;;;;;45.40;29.23;;;4.90;99.90;;;;;;5008731;28;20054;-78
2023/12/11 08:01:20;;;;;;;53.13;30.30;;;5.10;99.90;;;;;;5010236;28;20113;-78
2023/12/11 08:03:47;;;;;;;43.03;29.42;;;5.30;99.90;;;;;;4992626;28;20372;-79
2023/12/11 08:06:16;;;;;;;45.67;28.63;;;5.40;99.90;;;;;;5010604;28;20050;-78
2023/12/11 08:08:43;;;;;;;46.42;30.73;;;5.40;99.90;;;;;;4990087;28;20029;-78
2023/12/11 08:11:22;;;;;;;43.97;28.88;;;5.60;99.90;;;;;;5010659;28;20379;-78
2023/12/11 08:13:49;;;;;;;49.63;30.30;;;5.90;99.90;;;;;;4989665;28;20038;-80
2023/12/11 08:16:16;;;;;;;41.97;28.73;;;6.10;99.90;;;;;;5009659;28;20081;-78
2023/12/11 08:18:44;;;;;;;51.80;29.02;;;6.20;99.90;;;;;;5010310;28;20034;-78
2023/12/11 08:21:12;;;;;;;43.67;29.02;;;6.30;99.90;;;;;;5010415;28;20033;-79
2023/12/11 08:23:40;;;;;;;48.38;29.02;;;6.50;99.90;;;;;;5009356;28;20486;-79
2023/12/11 08:26:09;;;;;;;50.65;29.88;;;6.50;99.90;;;;;;4992642;28;20401;-78
2023/12/11 08:28:36;;;;;;;53.25;29.90;;;6.50;99.90;;;;;;5009441;28;20436;-80
2023/12/11 08:31:04;;;;;;;44.17;29.08;;;6.60;99.90;;;;;;5010166;28;20355;-80
2023/12/11 08:33:31;;;;;;;51.13;29.35;;;6.60;99.90;;;;;;5008739;28;20408;-81
2023/12/11 08:35:59;;;;;;;46.05;30.13;;;6.70;99.90;;;;;;5009939;28;20110;-78
2023/12/11 08:38:26;;;;;;;52.85;31.30;;;6.80;99.90;;;;;;5009226;28;20038;-79
2023/12/11 08:40:54;;;;;;;54.17;31.25;;;7.00;99.90;;;;;;5010033;28;20084;-79
2023/12/11 08:43:21;;;;;;;52.70;30.80;;;7.30;99.90;;;;;;4992093;28;20121;-77
2023/12/11 08:45:48;;;;;;;47.38;31.08;;;7.50;99.90;;;;;;5009378;28;20478;-78
2023/12/11 08:48:16;;;;;;;47.08;31.65;;;7.50;99.90;;;;;;4992771;28;20441;-78
2023/12/11 08:50:43;;;;;;;45.75;30.35;;;7.50;99.90;;;;;;5012900;28;20041;-78
2023/12/11 08:53:10;;;;;;;53.25;31.63;;;7.70;99.90;;;;;;5013262;28;20040;-79
2023/12/11 08:55:38;;;;;;;47.53;31.63;;;7.90;99.50;;;;;;5013892;28;20464;-79
2023/12/11 08:58:05;;;;;;;49.03;30.70;;;8.00;99.70;;;;;;5011921;28;20088;-79
2023/12/11 09:00:33;;;;;;;53.83;32.25;;;8.20;99.30;;;;;;4994237;28;20533;-77
2023/12/11 09:03:00;;;;;;;50.05;30.83;;;8.30;98.90;;;;;;5013364;28;20037;-78
2023/12/11 09:05:27;;;;;;;49.17;30.67;;;8.50;98.90;;;;;;5013002;28;20419;-77
2023/12/11 09:07:55;;;;;;;50.00;29.15;;;8.50;98.10;;;;;;5012927;28;20067;-78
2023/12/11 09:10:22;;;;;;;46.08;30.60;;;8.60;98.50;;;;;;4995660;28;20044;-78
2023/12/11 09:12:50;;;;;;;41.97;29.15;;;8.60;98.10;;;;;;4980074;28;20042;-78
2023/12/11 09:15:17;;;;;;;50.88;30.52;;;8.80;98.00;;;;;;5010810;28;20381;-78
2023/12/11 09:17:45;;;;;;;48.45;29.65;;;8.80;97.70;;;;;;5009683;28;20030;-77
2023/12/11 09:20:12;;;;;;;49.80;31.63;;;8.90;97.40;;;;;;5013115;28;20084;-78
2023/12/11 09:22:41;;;;;;;50.65;30.00;;;8.90;97.20;;;;;;5012539;28;20037;-78
2023/12/11 09:25:09;;;;;;;47.85;30.98;;;9.00;97.20;;;;;;5013310;28;20131;-80
2023/12/11 09:27:37;;;;;;;50.65;30.38;;;9.20;97.20;;;;;;5012866;28;20034;-78
2023/12/11 09:30:10;;;;;;;47.22;29.13;;;9.50;96.80;;;;;;5013179;28;20038;-77
2023/12/11 09:32:38;;;;;;;46.17;30.45;;;9.60;96.20;;;;;;4995509;28;20390;-78
2023/12/11 09:35:07;;;;;;;43.30;28.88;;;9.70;96.10;;;;;;5013376;28;20129;-79
2023/12/11 09:37:34;;;;;;;45.63;28.60;;;9.80;95.70;;;;;;4995232;28;20042;-78
2023/12/11 09:40:02;;;;;;;43.08;29.00;;;9.90;95.40;;;;;;5013158;28;20038;-78
2023/12/11 09:42:30;;;;;;;43.40;28.90;;;9.90;95.20;;;;;;5012333;28;20084;-79
2023/12/11 09:44:59;;;;;;;39.55;26.10;;;10.00;95.10;;;;;;5012769;28;20405;-77
2023/12/11 09:47:29;;;;;;;43.03;27.13;;;10.20;94.80;;;;;;5012120;28;20042;-79
2023/12/11 09:49:57;;;;;;;;;;;10.50;94.70;;;;;;5012247;28;20075;-78
2023/12/11 09:52:25;;;;;;;41.58;25.27;;;10.60;95.10;;;;;;5000081;28;20368;-77
2023/12/11 09:54:52;;;;;;;39.10;25.80;;;10.50;94.30;;;;;;5012527;28;20480;-78
2023/12/11 09:57:20;;;;;;;35.88;23.15;;;10.60;94.50;;;;;;5012432;28;20053;-79
2023/12/11 09:59:50;;;;;;;39.28;25.48;;;10.70;94.30;;;;;;5012616;28;20029;-78
2023/12/11 10:02:18;;;;;;;38.72;23.85;;;10.90;94.00;;;;;;5011035;28;20430;-78
2023/12/11 10:05:10;;;;;;;33.17;22.15;;;11.00;93.80;;;;;;5008522;28;20474;-78
2023/12/11 10:07:41;;;;;;;33.42;22.83;;;10.70;94.00;;;;;;5011364;28;20050;-77
2023/12/11 10:10:17;;;;;;;32.65;21.98;;;10.90;94.00;;;;;;5012171;28;20405;-79
2023/12/11 10:12:46;;;;;;;35.95;22.83;;;11.00;93.70;;;;;;5011920;28;20026;-79
2023/12/11 10:15:21;;;;;;;37.05;21.63;;;10.70;93.90;;;;;;5011882;28;20033;-78
2023/12/11 10:18:01;;;;;;;32.90;21.50;;;10.70;94.20;;;;;;5012166;28;20421;-77
2023/12/11 10:20:29;;;;;;;32.85;22.35;;;11.00;93.80;;;;;;5009641;28;20111;-78
2023/12/11 10:22:57;;;;;;;32.78;20.70;;;10.80;93.60;;;;;;5011888;28;20044;-78
2023/12/11 10:25:30;;;;;;;31.10;20.40;;;11.10;93.60;;;;;;5011910;28;20050;-78
2023/12/11 10:28:09;;;;;;;29.17;20.33;;;11.30;93.10;;;;;;5012153;28;20393;-80
2023/12/11 10:30:54;;;;;;;28.83;19.25;;;11.70;93.00;;;;;;5011781;28;20817;-79
2023/12/11 10:33:24;;;;;;;28.33;17.70;;;11.70;92.60;;;;;;5011269;28;20052;-78
2023/12/11 10:35:56;;;;;;;27.98;17.13;;;11.80;92.10;;;;;;5011900;28;20331;-78
2023/12/11 10:38:25;;;;;;;24.52;17.10;;;11.80;91.80;;;;;;5010936;28;20149;-78
2023/12/11 10:40:54;;;;;;;28.42;18.20;;;12.00;91.70;;;;;;5011300;28;20061;-78
2023/12/11 10:43:22;;;;;;;29.13;18.98;;;12.40;92.90;;;;;;5011412;28;20477;-79
2023/12/11 10:45:49;;;;;;;27.95;17.42;;;12.80;91.90;;;;;;5010608;28;20050;-75
2023/12/11 10:48:20;;;;;;;27.00;17.88;;;13.20;91.70;;;;;;4990241;28;20045;-76
2023/12/11 10:50:49;;;;;;;41.92;19.00;;;13.70;91.00;;;;;;5009406;28;20030;-76
2023/12/11 10:53:17;;;;;;;26.23;15.95;;;14.00;90.30;;;;;;5004296;28;20042;-77
2023/12/11 10:55:47;;;;;;;25.50;16.30;;;14.30;88.30;;;;;;5011795;28;20033;-76
2023/12/11 10:58:15;;;;;;;25.33;16.23;;;17.50;84.40;;;;;;5011110;28;20108;-75
2023/12/11 11:00:44;;;;;;;29.13;16.45;;;21.60;70.50;;;;;;5011008;28;20465;-79
2023/12/11 11:03:13;;;;;;;24.30;15.63;;;23.90;61.50;;;;;;5011045;28;20092;-75
2023/12/11 11:05:41;;;;;;;23.30;14.85;;;24.90;57.10;;;;;;5010647;28;20116;-77
2023/12/11 11:08:29;;;;;;;24.63;15.95;;;25.90;53.40;;;;;;5011403;28;20041;-76
2023/12/11 11:11:04;;;;;;;27.45;17.33;;;26.50;50.70;;;;;;5010354;28;20084;-76
2023/12/11 11:13:48;;;;;;;27.42;16.30;;;26.30;49.90;;;;;;5010153;28;20413;-74
2023/12/11 11:16:16;;;;;;;23.50;16.98;;;26.20;49.50;;;;;;4989648;28;20032;-74
2023/12/11 11:19:08;;;;;;;24.95;16.63;;;25.90;50.10;;;;;;5010751;28;20126;-76
2023/12/11 11:21:37;;;;;;;26.33;16.77;;;25.50;50.00;;;;;;4990515;28;20777;-74
2023/12/11 11:24:25;;;;;;;22.20;16.27;;;25.40;49.00;;;;;;5015037;28;20615;-74
2023/12/11 11:26:53;;;;;;;21.67;16.00;;;26.70;48.50;;;;;;5007723;28;20536;-77
2023/12/11 11:29:48;;;;;;;20.98;17.00;;;26.10;47.80;;;;;;4992996;28;20037;-75
2023/12/11 11:32:17;;;;;;;27.38;22.23;;;25.00;49.80;;;;;;5008530;28;20064;-74
2023/12/11 11:34:45;;;;;;;20.15;14.90;;;26.60;50.00;;;;;;4993433;28;20044;-77
2023/12/11 11:37:36;;;;;;;21.30;15.43;;;26.10;47.40;;;;;;5009930;28;20025;-75
2023/12/11 11:40:05;;;;;;;20.02;14.90;;;25.50;48.40;;;;;;5010773;28;20092;-77
2023/12/11 11:42:36;;;;;;;21.80;14.13;;;25.20;47.60;;;;;;5010046;28;20038;-74
2023/12/11 11:45:11;;;;;;;22.33;14.27;;;25.10;48.40;;;;;;5010335;28;20042;-72
2023/12/11 11:47:38;;;;;;;20.00;13.15;;;24.40;49.20;;;;;;5009250;28;20868;-70
2023/12/11 11:50:11;;;;;;;21.75;12.90;;;20.50;53.00;;;;;;5010346;28;20121;-71
2023/12/11 11:52:41;;;;;;;17.05;12.52;;;18.40;57.10;;;;;;4992759;28;20899;-70
2023/12/11 11:55:13;;;;;;;;;;;17.30;59.30;;;;;;5010105;28;20376;-72
2023/12/11 11:57:41;;;;;;;18.13;11.27;;;16.60;60.70;;;;;;5009993;28;19917;-69
2023/12/11 12:00:09;;;;;;;19.92;12.25;;;15.70;62.00;;;;;;5009830;28;20101;-70
2023/12/11 12:02:36;;;;;;;22.23;14.85;;;15.10;63.90;;;;;;5008956;28;20100;-70
2023/12/11 12:05:11;;;;;;;25.58;18.60;;;14.70;66.10;;;;;;5009572;28;20523;-71
2023/12/11 12:07:40;;;;;;;22.85;14.07;;;14.50;66.90;;;;;;5009859;28;20042;-71
2023/12/11 12:10:11;;;;;;;20.83;13.02;;;14.30;66.60;;;;;;5009695;28;20061;-71
2023/12/11 12:12:38;;;;;;;19.00;12.63;;;14.20;66.80;;;;;;5009961;28;20774;-72
2023/12/11 12:15:10;;;;;;;21.25;13.27;;;14.90;66.60;;;;;;5009775;28;20058;-72
2023/12/11 12:17:38;;;;;;;21.27;13.20;;;17.60;63.10;;;;;;5009521;28;20042;-72
2023/12/11 12:20:14;;;;;;;19.13;13.40;;;21.30;56.00;;;;;;5009911;28;20036;-73
2023/12/11 12:23:02;;;;;;;19.92;13.88;;;23.50;51.70;;;;;;4973469;28;20053;-70
2023/12/11 12:25:30;;;;;;;20.02;13.10;;;22.90;50.90;;;;;;5005190;28;20382;-72
2023/12/11 12:28:08;;;;;;;18.70;12.68;;;22.50;51.30;;;;;;5009830;28;20066;-74
2023/12/11 12:30:36;;;;;;;21.17;13.20;;;23.40;50.60;;;;;;5007534;28;20442;-73
2023/12/11 12:33:08;;;;;;;19.35;12.50;;;24.00;49.80;;;;;;5009219;28;20041;-74
2023/12/11 12:35:37;;;;;;;18.70;12.20;;;23.80;50.10;;;;;;5009563;28;20034;-73
2023/12/11 12:38:07;;;;;;;20.50;12.52;;;24.60;49.10;;;;;;5010104;28;20458;-73
2023/12/11 12:40:35;;;;;;;21.27;12.13;;;24.80;48.30;;;;;;5008963;28;20046;-74
2023/12/11 12:43:10;;;;;;;23.40;12.18;;;24.30;48.70;;;;;;5009425;28;20121;-74